Garnett, Kansas
Current Conditions -  °F | °C
As of 4:53 AM on Sunday 21 Dec 2014 (Local Time) from KIXD Reporting Station
Haze Haze  
Wind Chill: 30°   Ceiling: 1200
Heat Index: 36°   Visibility: 6mi
Dew Point: 34°   Wind: 8mph
Humidity: 93%   Direction: 170°S
Pressure: 30.07"   Gusts: NA
Location:  38.28°N, 95.24°W
Report Text: KIXD 211053Z AUTO 17007KT 6SM BR OVC012 02/01 A3007 RMK AO2 SLP187 T00220011
Loading
Personal Weather Stations






























Interactive Weather Map New forecast layout! Learn more

10-Day Weather Forecast

Advertisements
Track Severe Weather on mobile